PUA2601 SAZN-SCIE
Flight info
| Callsign | PUA2601 |
|---|---|
| Flight time | N/A |
| Altitude | 24000 |
| Route | UGAGI R683 CHI V103 VUMIT VUMIT7C |
| Aircraft | B738/M-SDE2E3FGHIRWXY/LB1 |
Departure
| Time | 2026-04-17 01:26 |
|---|---|
| Airport | Presidente Perón International Airport (SAZN) |
Arrival
| Time | N/A |
|---|---|
| Airport | Carriel Sur International Airport (SCIE) |
| Time | Latitude | Longitude | Altitude | Speed | Heading |
|---|---|---|---|---|---|
| 2026-04-17 01:01 | -38.95147 | -68.14126 | 904 ft | 0 kts | 217° |
| 2026-04-17 01:18 | -38.95137 | -68.14117 | 904 ft | 2 kts | 217° |
| 2026-04-17 01:18 | -38.95124 | -68.14104 | 904 ft | 2 kts | 217° |
| 2026-04-17 01:19 | -38.95111 | -68.14091 | 904 ft | 2 kts | 217° |
| 2026-04-17 01:19 | -38.95099 | -68.14079 | 904 ft | 2 kts | 217° |
| 2026-04-17 01:19 | -38.95086 | -68.14066 | 904 ft | 2 kts | 217° |
| 2026-04-17 01:19 | -38.95075 | -68.14056 | 904 ft | 0 kts | 217° |
| 2026-04-17 01:23 | -38.95077 | -68.14058 | 904 ft | 2 kts | 218° |
| 2026-04-17 01:23 | -38.95080 | -68.14110 | 904 ft | 10 kts | 338° |
| 2026-04-17 01:23 | -38.95057 | -68.14112 | 904 ft | 0 kts | 0° |
| 2026-04-17 01:24 | -38.95056 | -68.14112 | 904 ft | 1 kts | 0° |
| 2026-04-17 01:24 | -38.94999 | -68.14110 | 904 ft | 15 kts | 1° |
| 2026-04-17 01:25 | -38.94933 | -68.14137 | 904 ft | 13 kts | 313° |
| 2026-04-17 01:25 | -38.94911 | -68.14230 | 904 ft | 8 kts | 271° |
| 2026-04-17 01:25 | -38.94910 | -68.14404 | 904 ft | 52 kts | 270° |
| 2026-04-17 01:25 | -38.94906 | -68.15230 | 906 ft | 128 kts | 270° |
| 2026-04-17 01:26 | -38.94905 | -68.16541 | 1393 ft | 155 kts | 270° |
| 2026-04-17 01:26 | -38.94886 | -68.17885 | 2487 ft | 144 kts | 269° |
| 2026-04-17 01:26 | -38.94854 | -68.19120 | 3509 ft | 138 kts | 267° |
| 2026-04-17 01:26 | -38.94857 | -68.20411 | 4085 ft | 154 kts | 265° |
| 2026-04-17 01:27 | -38.94917 | -68.21903 | 4499 ft | 180 kts | 266° |
| 2026-04-17 01:27 | -38.94983 | -68.23620 | 4883 ft | 206 kts | 268° |
| 2026-04-17 01:27 | -38.95018 | -68.25551 | 5443 ft | 220 kts | 270° |
| 2026-04-17 01:27 | -38.94973 | -68.27497 | 6455 ft | 218 kts | 273° |
| 2026-04-17 01:28 | -38.94706 | -68.29435 | 7228 ft | 226 kts | 290° |
| 2026-04-17 01:28 | -38.93878 | -68.31254 | 7747 ft | 248 kts | 304° |
| 2026-04-17 01:28 | -38.92754 | -68.32974 | 8550 ft | 251 kts | 308° |
| 2026-04-17 01:28 | -38.91604 | -68.34639 | 9513 ft | 252 kts | 308° |
| 2026-04-17 01:29 | -38.90411 | -68.36315 | 10404 ft | 254 kts | 311° |
| 2026-04-17 01:29 | -38.87827 | -68.39645 | 11563 ft | 281 kts | 313° |
| 2026-04-17 01:29 | -38.86381 | -68.41464 | 11874 ft | 301 kts | 313° |
| 2026-04-17 01:30 | -38.84842 | -68.43369 | 12365 ft | 314 kts | 313° |
| 2026-04-17 01:30 | -38.83250 | -68.45321 | 13079 ft | 319 kts | 313° |
| 2026-04-17 01:30 | -38.81629 | -68.47296 | 13775 ft | 325 kts | 313° |
| 2026-04-17 01:30 | -38.79965 | -68.49309 | 14461 ft | 331 kts | 313° |
| 2026-04-17 01:31 | -38.78270 | -68.51354 | 15142 ft | 336 kts | 313° |
| 2026-04-17 01:31 | -38.76558 | -68.53412 | 15797 ft | 341 kts | 313° |
| 2026-04-17 01:31 | -38.74801 | -68.55520 | 16479 ft | 345 kts | 313° |
| 2026-04-17 01:31 | -38.73033 | -68.57636 | 17164 ft | 347 kts | 313° |
| 2026-04-17 01:32 | -38.71261 | -68.59756 | 17802 ft | 353 kts | 313° |
| 2026-04-17 01:32 | -38.69445 | -68.61926 | 18270 ft | 361 kts | 313° |
| 2026-04-17 01:32 | -38.67589 | -68.64143 | 18805 ft | 367 kts | 314° |
| 2026-04-17 01:32 | -38.65748 | -68.66404 | 19360 ft | 370 kts | 310° |
| 2026-04-17 01:33 | -38.64050 | -68.68928 | 19938 ft | 373 kts | 305° |
| 2026-04-17 01:33 | -38.62503 | -68.71553 | 20499 ft | 376 kts | 303° |
| 2026-04-17 01:33 | -38.60943 | -68.74262 | 21206 ft | 375 kts | 304° |
| 2026-04-17 01:33 | -38.59388 | -68.76940 | 22022 ft | 371 kts | 304° |
| 2026-04-17 01:34 | -38.57862 | -68.79551 | 22917 ft | 364 kts | 304° |
| 2026-04-17 01:34 | -38.56344 | -68.82142 | 23517 ft | 363 kts | 304° |
| 2026-04-17 01:34 | -38.54822 | -68.84739 | 23822 ft | 365 kts | 304° |
| 2026-04-17 01:34 | -38.53320 | -68.87289 | 23914 ft | 363 kts | 305° |
| 2026-04-17 01:35 | -38.51807 | -68.89857 | 23919 ft | 361 kts | 305° |
| 2026-04-17 01:35 | -38.50287 | -68.92434 | 23926 ft | 357 kts | 304° |
| 2026-04-17 01:35 | -38.48814 | -68.94930 | 23934 ft | 357 kts | 305° |
| 2026-04-17 01:35 | -38.47313 | -68.97471 | 23939 ft | 357 kts | 305° |
| 2026-04-17 01:36 | -38.45814 | -69.00005 | 23942 ft | 357 kts | 305° |
| 2026-04-17 01:36 | -38.44318 | -69.02533 | 23942 ft | 357 kts | 305° |
| 2026-04-17 01:36 | -38.42823 | -69.05058 | 23945 ft | 357 kts | 305° |
| 2026-04-17 01:36 | -38.41323 | -69.07588 | 23946 ft | 357 kts | 305° |
| 2026-04-17 01:37 | -38.39830 | -69.10104 | 23944 ft | 357 kts | 305° |
| 2026-04-17 01:37 | -38.38326 | -69.12638 | 23942 ft | 357 kts | 305° |
| 2026-04-17 01:37 | -38.36830 | -69.15157 | 23944 ft | 357 kts | 305° |
| 2026-04-17 01:37 | -38.35329 | -69.17683 | 23947 ft | 356 kts | 305° |
| 2026-04-17 01:38 | -38.33838 | -69.20205 | 23948 ft | 356 kts | 304° |
| 2026-04-17 01:38 | -38.32354 | -69.22724 | 23948 ft | 356 kts | 304° |
| 2026-04-17 01:38 | -38.30880 | -69.25221 | 23945 ft | 357 kts | 304° |
| 2026-04-17 01:38 | -38.29387 | -69.27742 | 23945 ft | 357 kts | 304° |
| 2026-04-17 01:39 | -38.27876 | -69.30291 | 23946 ft | 357 kts | 304° |
| 2026-04-17 01:39 | -38.26392 | -69.32789 | 23945 ft | 357 kts | 304° |
| 2026-04-17 01:39 | -38.24894 | -69.35309 | 23945 ft | 357 kts | 305° |
| 2026-04-17 01:39 | -38.23402 | -69.37814 | 23943 ft | 357 kts | 305° |
| 2026-04-17 01:40 | -38.21882 | -69.40385 | 23944 ft | 365 kts | 305° |
| 2026-04-17 01:40 | -38.20343 | -69.42980 | 23945 ft | 370 kts | 305° |
| 2026-04-17 01:40 | -38.18786 | -69.45594 | 23945 ft | 371 kts | 305° |
| 2026-04-17 01:40 | -38.17228 | -69.48202 | 23944 ft | 371 kts | 305° |
| 2026-04-17 01:41 | -38.15660 | -69.50820 | 23946 ft | 371 kts | 305° |
| 2026-04-17 01:41 | -38.14104 | -69.53414 | 23948 ft | 371 kts | 305° |
| 2026-04-17 01:41 | -38.12537 | -69.56021 | 23943 ft | 371 kts | 305° |
| 2026-04-17 01:41 | -38.10978 | -69.58614 | 23940 ft | 371 kts | 305° |
| 2026-04-17 01:42 | -38.09561 | -69.60968 | 23940 ft | 371 kts | 305° |
| 2026-04-17 01:42 | -38.08113 | -69.63372 | 23938 ft | 371 kts | 305° |
| 2026-04-17 01:42 | -38.06543 | -69.65978 | 23938 ft | 371 kts | 305° |
| 2026-04-17 01:42 | -38.04977 | -69.68575 | 23938 ft | 371 kts | 305° |
| 2026-04-17 01:43 | -38.03406 | -69.71183 | 23938 ft | 371 kts | 305° |
| 2026-04-17 01:43 | -38.01836 | -69.73781 | 23939 ft | 371 kts | 305° |
| 2026-04-17 01:43 | -38.00268 | -69.76372 | 23940 ft | 371 kts | 305° |
| 2026-04-17 01:43 | -37.98692 | -69.78975 | 23940 ft | 369 kts | 306° |
| 2026-04-17 01:44 | -37.97132 | -69.81548 | 23940 ft | 369 kts | 306° |
| 2026-04-17 01:44 | -37.95568 | -69.84125 | 23938 ft | 369 kts | 306° |
| 2026-04-17 01:44 | -37.94001 | -69.86706 | 23933 ft | 370 kts | 306° |
| 2026-04-17 01:44 | -37.92414 | -69.89317 | 23929 ft | 370 kts | 306° |
| 2026-04-17 01:45 | -37.90866 | -69.91861 | 23928 ft | 370 kts | 306° |
| 2026-04-17 01:45 | -37.89294 | -69.94442 | 23928 ft | 370 kts | 306° |
| 2026-04-17 01:45 | -37.87725 | -69.97017 | 23929 ft | 369 kts | 306° |
| 2026-04-17 01:45 | -37.86152 | -69.99596 | 23930 ft | 369 kts | 306° |
| 2026-04-17 01:46 | -37.84583 | -70.02166 | 23931 ft | 369 kts | 306° |
| 2026-04-17 01:46 | -37.83013 | -70.04737 | 23931 ft | 369 kts | 306° |
| 2026-04-17 01:46 | -37.81455 | -70.07308 | 23931 ft | 369 kts | 306° |
| 2026-04-17 01:46 | -37.79887 | -70.09898 | 23928 ft | 370 kts | 306° |
| 2026-04-17 01:47 | -37.78322 | -70.12477 | 23921 ft | 370 kts | 306° |
| 2026-04-17 01:47 | -37.76751 | -70.15061 | 23915 ft | 370 kts | 306° |
| 2026-04-17 01:47 | -37.75179 | -70.17643 | 23912 ft | 370 kts | 306° |
| 2026-04-17 01:47 | -37.73606 | -70.20222 | 23912 ft | 370 kts | 306° |
| 2026-04-17 01:48 | -37.72040 | -70.22784 | 23913 ft | 369 kts | 305° |
| 2026-04-17 01:48 | -37.70466 | -70.25359 | 23912 ft | 369 kts | 305° |
| 2026-04-17 01:48 | -37.69426 | -70.27059 | 23914 ft | 369 kts | 305° |
| 2026-04-17 01:48 | -37.67865 | -70.29609 | 23916 ft | 367 kts | 306° |
| 2026-04-17 01:49 | -37.66301 | -70.32160 | 23915 ft | 368 kts | 306° |
| 2026-04-17 01:49 | -37.64727 | -70.34724 | 23904 ft | 369 kts | 306° |
| 2026-04-17 01:49 | -37.63158 | -70.37278 | 23896 ft | 369 kts | 306° |
| 2026-04-17 01:49 | -37.61576 | -70.39850 | 23889 ft | 369 kts | 306° |
| 2026-04-17 01:50 | -37.59995 | -70.42419 | 23872 ft | 371 kts | 306° |
| 2026-04-17 01:50 | -37.58415 | -70.44985 | 23865 ft | 370 kts | 306° |
| 2026-04-17 01:50 | -37.56834 | -70.47549 | 23860 ft | 370 kts | 306° |
| 2026-04-17 01:50 | -37.55269 | -70.50088 | 23857 ft | 371 kts | 306° |
| 2026-04-17 01:51 | -37.53686 | -70.52651 | 23855 ft | 371 kts | 306° |
| 2026-04-17 01:51 | -37.52108 | -70.55206 | 23856 ft | 371 kts | 306° |
| 2026-04-17 01:51 | -37.50503 | -70.57802 | 23850 ft | 371 kts | 306° |
| 2026-04-17 01:51 | -37.48917 | -70.60364 | 23847 ft | 371 kts | 306° |
| 2026-04-17 01:52 | -37.47348 | -70.62899 | 23846 ft | 371 kts | 306° |
| 2026-04-17 01:52 | -37.45758 | -70.65463 | 23846 ft | 371 kts | 306° |
| 2026-04-17 01:52 | -37.44166 | -70.68031 | 23846 ft | 371 kts | 306° |
| 2026-04-17 01:52 | -37.42575 | -70.70594 | 23846 ft | 371 kts | 306° |
| 2026-04-17 01:53 | -37.40999 | -70.73131 | 23846 ft | 371 kts | 306° |
| 2026-04-17 01:53 | -37.39408 | -70.75690 | 23846 ft | 371 kts | 306° |
| 2026-04-17 01:53 | -37.37827 | -70.78233 | 23846 ft | 371 kts | 306° |
| 2026-04-17 01:53 | -37.36233 | -70.80794 | 23846 ft | 371 kts | 306° |
| 2026-04-17 01:54 | -37.34638 | -70.83360 | 23846 ft | 371 kts | 306° |
| 2026-04-17 01:54 | -37.33061 | -70.85910 | 23846 ft | 371 kts | 306° |
| 2026-04-17 01:54 | -37.31473 | -70.88469 | 23846 ft | 369 kts | 307° |
| 2026-04-17 01:54 | -37.29892 | -70.91005 | 23846 ft | 368 kts | 307° |
| 2026-04-17 01:55 | -37.28308 | -70.93538 | 23846 ft | 368 kts | 307° |
| 2026-04-17 01:55 | -37.26721 | -70.96073 | 23846 ft | 368 kts | 307° |
| 2026-04-17 01:55 | -37.25136 | -70.98601 | 23846 ft | 368 kts | 307° |
| 2026-04-17 01:55 | -37.23553 | -71.01123 | 23846 ft | 367 kts | 307° |
| 2026-04-17 01:56 | -37.21971 | -71.03640 | 23846 ft | 366 kts | 308° |
| 2026-04-17 01:56 | -37.20412 | -71.06119 | 23846 ft | 366 kts | 308° |
| 2026-04-17 01:56 | -37.18829 | -71.08636 | 23846 ft | 366 kts | 308° |
| 2026-04-17 01:56 | -37.17251 | -71.11143 | 23846 ft | 366 kts | 308° |
| 2026-04-17 01:57 | -37.15671 | -71.13652 | 23846 ft | 366 kts | 308° |
| 2026-04-17 01:57 | -37.14091 | -71.16163 | 23846 ft | 366 kts | 308° |
| 2026-04-17 01:57 | -37.12515 | -71.18666 | 23846 ft | 366 kts | 308° |
| 2026-04-17 01:57 | -37.10937 | -71.21167 | 23846 ft | 366 kts | 308° |
| 2026-04-17 01:58 | -37.09354 | -71.23674 | 23846 ft | 366 kts | 308° |
| 2026-04-17 01:58 | -37.07773 | -71.26176 | 23846 ft | 366 kts | 308° |
| 2026-04-17 01:58 | -37.06191 | -71.28678 | 23847 ft | 366 kts | 308° |
| 2026-04-17 01:58 | -37.04613 | -71.31173 | 23846 ft | 362 kts | 308° |
| 2026-04-17 01:59 | -37.03073 | -71.33604 | 23846 ft | 358 kts | 308° |
| 2026-04-17 01:59 | -37.01520 | -71.36054 | 23846 ft | 358 kts | 308° |
| 2026-04-17 01:59 | -36.99973 | -71.38493 | 23846 ft | 358 kts | 308° |
| 2026-04-17 01:59 | -36.98421 | -71.40940 | 23846 ft | 358 kts | 308° |
| 2026-04-17 02:00 | -36.96869 | -71.43383 | 23847 ft | 358 kts | 308° |
| 2026-04-17 02:00 | -36.95315 | -71.45829 | 23848 ft | 358 kts | 308° |
| 2026-04-17 02:00 | -36.93757 | -71.48281 | 23848 ft | 358 kts | 308° |
| 2026-04-17 02:00 | -36.92219 | -71.50723 | 23848 ft | 358 kts | 308° |
| 2026-04-17 02:01 | -36.90672 | -71.53173 | 23849 ft | 358 kts | 308° |
| 2026-04-17 02:01 | -36.89125 | -71.55619 | 23849 ft | 358 kts | 308° |
| 2026-04-17 02:01 | -36.87596 | -71.58032 | 23849 ft | 358 kts | 308° |
| 2026-04-17 02:01 | -36.86026 | -71.60504 | 23849 ft | 358 kts | 308° |
| 2026-04-17 02:02 | -36.84496 | -71.62912 | 23849 ft | 358 kts | 308° |
| 2026-04-17 02:02 | -36.82955 | -71.65332 | 23848 ft | 352 kts | 308° |
| 2026-04-17 02:02 | -36.81443 | -71.67705 | 23847 ft | 346 kts | 308° |
| 2026-04-17 02:02 | -36.79959 | -71.70032 | 23847 ft | 341 kts | 308° |
| 2026-04-17 02:03 | -36.78499 | -71.72328 | 23848 ft | 340 kts | 308° |
| 2026-04-17 02:03 | -36.77033 | -71.74642 | 23663 ft | 337 kts | 308° |
| 2026-04-17 02:03 | -36.75597 | -71.76895 | 23417 ft | 331 kts | 307° |
| 2026-04-17 02:03 | -36.74153 | -71.79159 | 23045 ft | 331 kts | 307° |
| 2026-04-17 02:04 | -36.72707 | -71.81419 | 22684 ft | 330 kts | 306° |
| 2026-04-17 02:04 | -36.71278 | -71.83648 | 22308 ft | 329 kts | 306° |
| 2026-04-17 02:04 | -36.69850 | -71.85873 | 21926 ft | 328 kts | 306° |
| 2026-04-17 02:04 | -36.68423 | -71.88093 | 21544 ft | 328 kts | 306° |
| 2026-04-17 02:05 | -36.66994 | -71.90313 | 21160 ft | 327 kts | 306° |
| 2026-04-17 02:05 | -36.65570 | -71.92525 | 20780 ft | 327 kts | 306° |
| 2026-04-17 02:05 | -36.64149 | -71.94731 | 20401 ft | 326 kts | 307° |
| 2026-04-17 02:05 | -36.62728 | -71.96934 | 20026 ft | 326 kts | 307° |
| 2026-04-17 02:06 | -36.61313 | -71.99129 | 19654 ft | 325 kts | 307° |
| 2026-04-17 02:06 | -36.60185 | -72.01094 | 19329 ft | 323 kts | 296° |
| 2026-04-17 02:06 | -36.59527 | -72.03781 | 19016 ft | 320 kts | 277° |
| 2026-04-17 02:06 | -36.59555 | -72.06514 | 18554 ft | 325 kts | 267° |
| 2026-04-17 02:07 | -36.59831 | -72.09311 | 18162 ft | 326 kts | 265° |
| 2026-04-17 02:07 | -36.60211 | -72.12097 | 17791 ft | 327 kts | 263° |
| 2026-04-17 02:07 | -36.60637 | -72.14880 | 17552 ft | 322 kts | 263° |
| 2026-04-17 02:07 | -36.61062 | -72.17599 | 17208 ft | 321 kts | 263° |
| 2026-04-17 02:08 | -36.61494 | -72.20331 | 16850 ft | 321 kts | 263° |
| 2026-04-17 02:08 | -36.61928 | -72.23065 | 16492 ft | 321 kts | 263° |
| 2026-04-17 02:08 | -36.62329 | -72.25575 | 16163 ft | 321 kts | 263° |
| 2026-04-17 02:08 | -36.62503 | -72.26658 | 16021 ft | 321 kts | 263° |
| 2026-04-17 02:09 | -36.62621 | -72.27399 | 15926 ft | 320 kts | 262° |
| 2026-04-17 02:09 | -36.62631 | -72.27462 | 15918 ft | 320 kts | 262° |